createdAt,value
2018-01-25T00:00:42.579Z,0
2018-01-25T00:01:42.264Z,0
2018-01-25T00:02:42.549Z,0
2018-01-25T00:03:42.648Z,0
2018-01-25T00:04:57.240Z,0
2018-01-25T00:05:42.620Z,0
2018-01-25T00:06:42.109Z,0
2018-01-25T00:07:42.104Z,0
2018-01-25T00:08:42.752Z,0
2018-01-25T00:10:42.411Z,0
2018-01-25T00:11:42.176Z,0
2018-01-25T00:12:57.402Z,0
2018-01-25T00:14:57.477Z,0
2018-01-25T00:15:42.535Z,0
2018-01-25T00:16:42.541Z,0
2018-01-25T00:17:42.553Z,0
2018-01-25T00:18:42.845Z,0
2018-01-25T00:19:42.849Z,0
2018-01-25T00:20:57.544Z,0
2018-01-25T00:21:42.386Z,0
2018-01-25T00:23:42.996Z,0
2018-01-25T00:24:43.055Z,0
2018-01-25T00:25:57.385Z,0
2018-01-25T00:26:42.999Z,0
2018-01-25T00:27:42.773Z,0
2018-01-25T00:28:57.461Z,0
2018-01-25T00:29:57.540Z,0
2018-01-25T00:30:57.221Z,0
2018-01-25T00:31:43.079Z,0
2018-01-25T00:32:42.588Z,0
2018-01-25T00:33:42.354Z,0
2018-01-25T00:34:43.226Z,0
2018-01-25T00:35:42.714Z,0
2018-01-25T00:36:57.842Z,0
2018-01-25T00:37:42.940Z,0
2018-01-25T00:38:42.966Z,0
2018-01-25T00:39:43.230Z,0
2018-01-25T00:40:57.934Z,0
2018-01-25T00:41:43.008Z,0
2018-01-25T00:42:43.051Z,0
2018-01-25T00:43:43.314Z,0
2018-01-25T00:44:43.329Z,0
2018-01-25T00:45:43.350Z,0
2018-01-25T00:46:43.114Z,0
2018-01-25T00:47:43.109Z,0
2018-01-25T00:48:43.388Z,0
2018-01-25T00:49:43.184Z,0
2018-01-25T00:50:43.453Z,0
2018-01-25T00:51:57.866Z,0
2018-01-25T00:52:43.490Z,0
2018-01-25T00:53:58.158Z,0
2018-01-25T00:54:43.289Z,0
2018-01-25T00:55:43.050Z,0
2018-01-25T00:56:43.315Z,0
2018-01-25T00:57:43.320Z,0
2018-01-25T00:58:43.355Z,0
2018-01-25T00:59:43.609Z,0
2018-01-25T01:00:58.297Z,0
2018-01-25T01:01:43.650Z,0
2018-01-25T01:02:58.384Z,0
2018-01-25T01:03:43.691Z,0
2018-01-25T01:04:43.571Z,0
2018-01-25T01:05:43.221Z,0
2018-01-25T01:06:43.242Z,0
2018-01-25T01:07:43.772Z,0
2018-01-25T01:08:43.532Z,0
2018-01-25T01:09:43.882Z,0
2018-01-25T01:10:43.842Z,0
2018-01-25T01:11:43.832Z,0
2018-01-25T01:12:43.356Z,0
2018-01-25T01:13:58.549Z,0
2018-01-25T01:14:58.557Z,0
2018-01-25T01:15:43.904Z,0
2018-01-25T01:16:58.590Z,0
2018-01-25T01:18:43.714Z,0
2018-01-25T01:19:44.006Z,0
2018-01-25T01:20:43.772Z,0
2018-01-25T01:21:44.037Z,0
2018-01-25T01:22:44.060Z,0
2018-01-25T01:24:13.424Z,0
2018-01-25T01:24:44.089Z,0
2018-01-25T01:25:44.172Z,0
2018-01-25T01:27:43.877Z,0
2018-01-25T01:28:43.648Z,0
2018-01-25T01:29:44.174Z,0
2018-01-25T01:30:43.944Z,0
2018-01-25T01:31:44.009Z,0
2018-01-25T01:32:44.254Z,0
2018-01-25T01:33:43.988Z,0
2018-01-25T01:34:44.047Z,0
2018-01-25T01:36:44.066Z,0
2018-01-25T01:37:44.074Z,0
2018-01-25T01:39:58.788Z,0
2018-01-25T01:40:43.860Z,0
2018-01-25T01:41:43.913Z,0
2018-01-25T01:42:44.404Z,0
2018-01-25T01:43:59.130Z,0
2018-01-25T01:44:44.480Z,0
2018-01-25T01:45:58.904Z,0
2018-01-25T01:46:59.196Z,0
2018-01-25T01:47:44.518Z,0
2018-01-25T01:49:13.883Z,0
2018-01-25T01:49:44.553Z,0
2018-01-25T01:50:44.586Z,0
2018-01-25T01:51:44.343Z,0
2018-01-25T01:52:44.642Z,0
2018-01-25T01:53:59.308Z,0
2018-01-25T01:54:44.430Z,0
2018-01-25T01:55:59.101Z,0
2018-01-25T01:56:44.716Z,0
2018-01-25T01:57:44.559Z,0
2018-01-25T01:59:44.762Z,0
2018-01-25T02:00:44.526Z,0
2018-01-25T02:01:44.288Z,0
2018-01-25T02:02:44.576Z,0
2018-01-25T02:03:44.578Z,0
2018-01-25T02:04:44.607Z,0
2018-01-25T02:05:59.544Z,0
2018-01-25T02:06:44.908Z,0
2018-01-25T02:07:45.017Z,0
2018-01-25T02:08:44.682Z,0
2018-01-25T02:09:45.052Z,0
2018-01-25T02:10:44.970Z,0
2018-01-25T02:11:59.648Z,0
2018-01-25T02:12:45.014Z,0
2018-01-25T02:13:59.458Z,0
2018-01-25T02:14:44.889Z,0
2018-01-25T02:15:45.059Z,0
2018-01-25T02:16:59.733Z,0
2018-01-25T02:17:44.600Z,0
2018-01-25T02:18:45.128Z,0
2018-01-25T02:19:59.826Z,0
2018-01-25T02:20:45.263Z,0
2018-01-25T02:21:44.513Z,0
2018-01-25T02:22:44.943Z,0
2018-01-25T02:23:44.958Z,0
2018-01-25T02:24:45.249Z,0
2018-01-25T02:25:59.947Z,0
2018-01-25T02:26:59.802Z,0
2018-01-25T02:27:45.042Z,0
2018-01-25T02:28:45.030Z,0
2018-01-25T02:29:45.345Z,0
2018-01-25T02:30:45.121Z,0
2018-01-25T02:31:45.130Z,0
2018-01-25T02:32:45.398Z,0
2018-01-25T02:33:45.416Z,0
2018-01-25T02:34:45.158Z,0
2018-01-25T02:35:59.877Z,0
2018-01-25T02:36:45.214Z,0
2018-01-25T02:37:45.249Z,0
2018-01-25T02:38:45.257Z,0
2018-01-25T02:39:45.300Z,0
2018-01-25T02:41:00.162Z,0
2018-01-25T02:41:45.049Z,0
2018-01-25T02:43:00.349Z,0
2018-01-25T02:43:45.604Z,0
2018-01-25T02:44:45.094Z,0
2018-01-25T02:45:45.391Z,0
2018-01-25T02:46:45.629Z,0
2018-01-25T02:47:45.431Z,0
2018-01-25T02:49:00.369Z,0
2018-01-25T02:49:45.215Z,0
2018-01-25T02:50:45.226Z,0
2018-01-25T02:51:45.748Z,0
2018-01-25T02:52:45.015Z,0
2018-01-25T02:53:45.547Z,0
2018-01-25T02:54:45.796Z,0
2018-01-25T02:55:45.583Z,0
2018-01-25T02:56:45.867Z,0
2018-01-25T02:57:45.860Z,0
2018-01-25T02:59:00.353Z,0
2018-01-25T02:59:45.639Z,0
2018-01-25T03:00:45.653Z,0
2018-01-25T03:01:45.426Z,0
2018-01-25T03:02:45.691Z,0
2018-01-25T03:04:00.682Z,0
2018-01-25T03:04:46.021Z,0
2018-01-25T03:05:45.771Z,0
2018-01-25T03:06:46.045Z,0
2018-01-25T03:07:45.804Z,0
2018-01-25T03:08:45.580Z,0
2018-01-25T03:09:46.106Z,0
2018-01-25T03:10:45.871Z,0
2018-01-25T03:11:45.888Z,0
2018-01-25T03:13:46.166Z,0
2018-01-25T03:15:00.868Z,0
2018-01-25T03:15:45.961Z,0
2018-01-25T03:16:45.995Z,0
2018-01-25T03:18:00.898Z,0
2018-01-25T03:18:46.255Z,0
2018-01-25T03:19:46.029Z,0
2018-01-25T03:20:46.045Z,0
2018-01-25T03:22:01.007Z,0
2018-01-25T03:22:45.579Z,0
2018-01-25T03:23:46.361Z,0
2018-01-25T03:24:46.152Z,0
2018-01-25T03:25:46.199Z,0
2018-01-25T03:26:45.887Z,0
2018-01-25T03:27:46.204Z,0
2018-01-25T03:28:46.443Z,0
2018-01-25T03:29:46.539Z,0
2018-01-25T03:31:01.161Z,0
2018-01-25T03:31:46.489Z,0
2018-01-25T03:32:46.545Z,0
2018-01-25T03:35:01.232Z,0
2018-01-25T03:35:46.332Z,0
2018-01-25T03:37:01.269Z,0
2018-01-25T03:37:46.647Z,0
2018-01-25T03:38:46.647Z,0
2018-01-25T03:40:46.436Z,0
2018-01-25T03:41:46.447Z,0
2018-01-25T03:42:46.479Z,0
2018-01-25T03:43:46.741Z,0
2018-01-25T03:45:46.515Z,0
2018-01-25T03:47:01.459Z,0
2018-01-25T03:47:46.819Z,0
2018-01-25T03:48:46.587Z,0
2018-01-25T03:49:46.859Z,0
2018-01-25T03:51:01.286Z,0
2018-01-25T03:51:46.650Z,0
2018-01-25T03:52:46.916Z,0
2018-01-25T03:53:46.960Z,0
2018-01-25T03:54:46.690Z,0
2018-01-25T03:55:47.115Z,0
2018-01-25T03:57:01.652Z,0
2018-01-25T03:57:46.735Z,0
2018-01-25T03:58:46.805Z,0
2018-01-25T04:00:01.448Z,0
2018-01-25T04:00:46.809Z,0
2018-01-25T04:02:01.751Z,0
2018-01-25T04:02:47.124Z,0
2018-01-25T04:03:46.876Z,0
2018-01-25T04:05:01.553Z,0
2018-01-25T04:05:47.157Z,0
2018-01-25T04:06:46.917Z,0
2018-01-25T04:07:46.935Z,0
2018-01-25T04:09:01.896Z,0
2018-01-25T04:09:47.238Z,0
2018-01-25T04:10:47.019Z,0
2018-01-25T04:12:47.043Z,0
2018-01-25T04:13:47.309Z,0
2018-01-25T04:14:46.818Z,0
2018-01-25T04:17:01.784Z,0
2018-01-25T04:17:47.396Z,0
2018-01-25T04:19:47.391Z,0
2018-01-25T04:20:47.463Z,0
2018-01-25T04:21:47.472Z,0
2018-01-25T04:22:47.224Z,0
2018-01-25T04:24:02.186Z,0
2018-01-25T04:24:47.508Z,0
2018-01-25T04:26:01.948Z,0
2018-01-25T04:27:02.209Z,0
2018-01-25T04:27:47.318Z,0
2018-01-25T04:28:47.325Z,0
2018-01-25T04:29:47.707Z,0
2018-01-25T04:30:47.635Z,0
2018-01-25T04:31:47.380Z,0
2018-01-25T04:32:47.543Z,0
2018-01-25T04:34:02.118Z,0
2018-01-25T04:34:47.691Z,0
2018-01-25T04:35:47.508Z,0
2018-01-25T04:36:47.747Z,0
2018-01-25T04:37:47.517Z,0
2018-01-25T04:38:47.551Z,0
2018-01-25T04:39:47.549Z,0
2018-01-25T04:40:47.842Z,0
2018-01-25T04:41:47.596Z,0
2018-01-25T04:43:02.277Z,0
2018-01-25T04:43:47.632Z,0
2018-01-25T04:44:47.673Z,0
2018-01-25T04:45:47.635Z,0
2018-01-25T04:46:47.965Z,0
2018-01-25T04:47:47.449Z,0
2018-01-25T04:48:47.963Z,0
2018-01-25T04:50:02.434Z,0
2018-01-25T04:50:47.994Z,0
2018-01-25T04:51:48.032Z,0
2018-01-25T04:52:47.786Z,0
2018-01-25T04:53:48.080Z,0
2018-01-25T04:55:47.608Z,0
2018-01-25T04:56:48.141Z,0
2018-01-25T04:57:48.150Z,0
2018-01-25T04:58:47.927Z,0
2018-01-25T04:59:47.674Z,0
2018-01-25T05:00:48.034Z,0
2018-01-25T05:01:47.958Z,0
2018-01-25T05:03:02.919Z,0
2018-01-25T05:03:48.289Z,0
2018-01-25T05:05:02.718Z,0
2018-01-25T05:06:03.069Z,0
2018-01-25T05:06:48.334Z,0
2018-01-25T05:07:48.332Z,0
2018-01-25T05:08:48.084Z,0
2018-01-25T05:09:48.478Z,0
2018-01-25T05:10:48.404Z,0
2018-01-25T05:11:48.403Z,0
2018-01-25T05:12:48.475Z,0
2018-01-25T05:13:48.191Z,0
2018-01-25T05:14:48.224Z,0
2018-01-25T05:15:48.523Z,0
2018-01-25T05:16:48.504Z,0
2018-01-25T05:17:48.501Z,0
2018-01-25T05:18:48.292Z,0
2018-01-25T05:19:48.678Z,0
2018-01-25T05:20:48.584Z,0
2018-01-25T05:22:03.284Z,0
2018-01-25T05:22:48.631Z,0
2018-01-25T05:24:48.670Z,0
2018-01-25T05:25:48.683Z,0
2018-01-25T05:26:48.698Z,0
2018-01-25T05:28:03.382Z,0
2018-01-25T05:28:48.730Z,0
2018-01-25T05:30:03.632Z,0
2018-01-25T05:30:48.263Z,0
2018-01-25T05:31:48.539Z,0
2018-01-25T05:32:48.812Z,0
2018-01-25T05:34:03.487Z,0
2018-01-25T05:34:48.332Z,0
2018-01-25T05:35:48.871Z,0
2018-01-25T05:37:03.322Z,0
2018-01-25T05:37:48.907Z,0
2018-01-25T05:38:48.680Z,0
2018-01-25T05:39:48.953Z,0
2018-01-25T05:41:48.989Z,0
2018-01-25T05:42:48.753Z,0
2018-01-25T05:43:48.773Z,0
2018-01-25T05:44:49.047Z,0
2018-01-25T05:45:49.064Z,0
2018-01-25T05:47:03.740Z,0
2018-01-25T05:48:03.782Z,0
2018-01-25T05:50:03.574Z,0
2018-01-25T05:50:49.160Z,0
2018-01-25T05:51:48.925Z,0
2018-01-25T05:52:49.221Z,0
2018-01-25T05:53:49.222Z,0
2018-01-25T05:55:03.645Z,0
2018-01-25T05:56:03.940Z,0
2018-01-25T05:56:49.267Z,0
2018-01-25T05:57:49.305Z,0
2018-01-25T05:58:49.076Z,0
2018-01-25T05:59:49.328Z,0
2018-01-25T06:00:49.469Z,0
2018-01-25T06:02:04.021Z,0
2018-01-25T06:02:49.135Z,0
2018-01-25T06:03:49.392Z,0
2018-01-25T06:04:49.195Z,0
2018-01-25T06:05:49.202Z,0
2018-01-25T06:07:04.162Z,0
2018-01-25T06:07:49.544Z,0
2018-01-25T06:09:04.213Z,0
2018-01-25T06:10:04.218Z,0
2018-01-25T06:10:49.539Z,0
2018-01-25T06:11:49.066Z,0
2018-01-25T06:12:49.610Z,0
2018-01-25T06:13:49.610Z,0
2018-01-25T06:15:04.282Z,0
2018-01-25T06:15:49.656Z,0
2018-01-25T06:16:49.715Z,0
2018-01-25T06:17:49.896Z,0
2018-01-25T06:18:49.721Z,0
2018-01-25T06:19:49.733Z,0
2018-01-25T06:20:49.741Z,0
2018-01-25T06:21:49.518Z,0
2018-01-25T06:22:49.780Z,0
2018-01-25T06:23:49.645Z,0
2018-01-25T06:25:04.228Z,0
2018-01-25T06:25:49.842Z,0
2018-01-25T06:27:49.871Z,0
2018-01-25T06:28:49.993Z,0
2018-01-25T06:29:49.630Z,0
2018-01-25T06:31:04.629Z,0
2018-01-25T06:31:49.697Z,0
2018-01-25T06:33:04.637Z,0
2018-01-25T06:34:19.329Z,0
2018-01-25T06:34:50.432Z,0
2018-01-25T06:35:49.534Z,0
2018-01-25T06:38:04.739Z,0
2018-01-25T06:38:49.828Z,0
2018-01-25T06:39:50.105Z,0
2018-01-25T06:41:19.208Z,0
2018-01-25T06:42:49.915Z,0
2018-01-25T06:44:04.860Z,0
2018-01-25T06:44:50.312Z,0
2018-01-25T06:45:49.954Z,0
2018-01-25T06:46:50.246Z,0
2018-01-25T06:47:49.991Z,0
2018-01-25T06:48:50.290Z,0
2018-01-25T06:49:50.320Z,0
2018-01-25T06:50:50.433Z,0
2018-01-25T06:51:50.078Z,0
2018-01-25T06:53:05.120Z,0
2018-01-25T06:53:50.384Z,0
2018-01-25T06:54:50.405Z,0
2018-01-25T06:55:50.160Z,0
2018-01-25T06:57:04.853Z,0
2018-01-25T06:57:50.445Z,0
2018-01-25T06:58:50.236Z,0
2018-01-25T06:59:50.505Z,0
2018-01-25T07:00:50.521Z,0
2018-01-25T07:01:50.543Z,0
2018-01-25T07:02:50.308Z,0
2018-01-25T07:03:50.331Z,0
2018-01-25T07:04:50.065Z,0
2018-01-25T07:06:05.021Z,0
2018-01-25T07:06:50.638Z,0
2018-01-25T07:07:50.653Z,0
2018-01-25T07:08:50.419Z,0
2018-01-25T07:09:50.415Z,0
2018-01-25T07:10:50.716Z,0
2018-01-25T07:12:05.143Z,0
2018-01-25T07:12:50.500Z,0
2018-01-25T07:14:50.865Z,0
2018-01-25T07:15:50.545Z,0
2018-01-25T07:17:05.503Z,0
2018-01-25T07:18:50.854Z,0
2018-01-25T07:19:50.724Z,0
2018-01-25T07:20:50.392Z,0
2018-01-25T07:21:50.956Z,0
2018-01-25T07:22:50.953Z,0
2018-01-25T07:24:05.625Z,0
2018-01-25T07:24:51.081Z,0
2018-01-25T07:25:50.750Z,0
2018-01-25T07:26:51.007Z,0
2018-01-25T07:27:50.889Z,0
2018-01-25T07:28:51.042Z,0
2018-01-25T07:29:50.839Z,0
2018-01-25T07:31:50.868Z,0
2018-01-25T07:32:51.138Z,0
2018-01-25T07:34:05.565Z,0
2018-01-25T07:34:50.911Z,0
2018-01-25T07:35:50.926Z,0
2018-01-25T07:36:50.986Z,0
2018-01-25T07:37:51.217Z,0
2018-01-25T07:38:51.312Z,0
2018-01-25T07:40:05.947Z,0
2018-01-25T07:40:51.033Z,0
2018-01-25T07:41:51.075Z,0
2018-01-25T07:42:51.343Z,0
2018-01-25T07:44:06.019Z,0
2018-01-25T07:44:51.365Z,0
2018-01-25T07:45:51.102Z,0
2018-01-25T07:46:50.909Z,0
2018-01-25T07:47:51.422Z,5
2018-01-25T07:48:51.361Z,5
2018-01-25T07:49:51.470Z,5
2018-01-25T07:50:51.493Z,5
2018-01-25T07:53:51.644Z,5
2018-01-25T07:55:06.235Z,5
2018-01-25T07:56:05.748Z,5
2018-01-25T07:56:51.631Z,5
2018-01-25T07:57:51.627Z,5
2018-01-25T07:58:51.481Z,5
2018-01-25T08:00:06.341Z,5
2018-01-25T08:00:51.022Z,5
2018-01-25T08:01:51.717Z,5
2018-01-25T08:02:51.739Z,5
2018-01-25T08:04:05.897Z,5
2018-01-25T08:04:51.354Z,5
2018-01-25T08:06:06.454Z,5
2018-01-25T08:06:51.542Z,5
2018-01-25T08:07:51.791Z,5
2018-01-25T08:08:51.854Z,5
2018-01-25T08:10:06.621Z,5
2018-01-25T08:10:51.879Z,5
2018-01-25T08:11:51.633Z,10
2018-01-25T08:12:51.927Z,15
2018-01-25T08:13:51.930Z,15
2018-01-25T08:14:51.463Z,15
2018-01-25T08:16:21.332Z,10
2018-01-25T08:17:06.747Z,10
2018-01-25T08:18:06.688Z,5
2018-01-25T08:19:06.696Z,5
2018-01-25T08:19:51.803Z,5
2018-01-25T08:20:51.564Z,5
2018-01-25T08:21:52.108Z,5
2018-01-25T08:23:06.771Z,5
2018-01-25T08:23:51.895Z,5
2018-01-25T08:25:06.937Z,5
2018-01-25T08:25:51.930Z,5
2018-01-25T08:26:51.943Z,5
2018-01-25T08:29:51.991Z,5
2018-01-25T08:30:52.284Z,5
2018-01-25T08:32:06.718Z,5
2018-01-25T08:32:52.058Z,5
2018-01-25T08:33:52.322Z,5
2018-01-25T08:34:52.354Z,5
2018-01-25T08:35:52.214Z,5
2018-01-25T08:37:07.132Z,5
2018-01-25T08:37:52.411Z,5
2018-01-25T08:38:52.176Z,5
2018-01-25T08:40:06.852Z,5
2018-01-25T08:40:52.478Z,5
2018-01-25T08:41:52.627Z,5
2018-01-25T08:42:52.253Z,5
2018-01-25T08:43:52.283Z,5
2018-01-25T08:44:52.312Z,5
2018-01-25T08:45:52.583Z,5
2018-01-25T08:47:07.320Z,10
2018-01-25T08:47:52.611Z,10
2018-01-25T08:48:52.357Z,10
2018-01-25T08:50:07.319Z,10
2018-01-25T08:50:52.393Z,10
2018-01-25T08:51:51.918Z,10
2018-01-25T08:52:52.712Z,10
2018-01-25T08:53:52.715Z,10
2018-01-25T08:55:07.578Z,5
2018-01-25T08:55:52.497Z,5
2018-01-25T08:56:52.272Z,5
2018-01-25T08:57:52.918Z,5
2018-01-25T08:58:52.314Z,5
2018-01-25T08:59:52.892Z,5
2018-01-25T09:01:07.278Z,5
2018-01-25T09:02:52.898Z,5
2018-01-25T09:03:52.921Z,5
2018-01-25T09:04:52.997Z,5
2018-01-25T09:05:52.697Z,5
2018-01-25T09:06:52.728Z,5
2018-01-25T09:07:53.008Z,5
2018-01-25T09:08:52.511Z,5
2018-01-25T09:09:52.553Z,5
2018-01-25T09:11:07.727Z,5
2018-01-25T09:11:52.599Z,5
2018-01-25T09:12:52.582Z,5
2018-01-25T09:13:53.099Z,10
2018-01-25T09:15:07.912Z,10
2018-01-25T09:15:52.912Z,10
2018-01-25T09:16:53.210Z,10
2018-01-25T09:17:53.198Z,10
2018-01-25T09:19:07.644Z,10
2018-01-25T09:19:52.721Z,10
2018-01-25T09:20:53.013Z,10
2018-01-25T09:21:53.249Z,15
2018-01-25T09:24:07.966Z,15
2018-01-25T09:24:53.345Z,15
2018-01-25T09:25:53.363Z,15
2018-01-25T09:27:08.055Z,15
2018-01-25T09:28:53.149Z,15
2018-01-25T09:29:53.414Z,15
2018-01-25T09:31:53.564Z,20
2018-01-25T09:32:53.613Z,20
2018-01-25T09:33:53.245Z,20
2018-01-25T09:35:08.201Z,20
2018-01-25T09:35:53.549Z,20
2018-01-25T09:37:07.765Z,25
2018-01-25T09:37:53.342Z,20
2018-01-25T09:38:53.574Z,25
2018-01-25T09:39:53.639Z,25
2018-01-25T09:40:53.147Z,25
2018-01-25T09:41:53.413Z,25
2018-01-25T09:42:53.671Z,25
2018-01-25T09:43:53.447Z,25
2018-01-25T09:45:53.230Z,25
2018-01-25T09:46:53.257Z,25
2018-01-25T09:48:08.210Z,25
2018-01-25T09:48:53.303Z,25
2018-01-25T09:49:53.820Z,25
2018-01-25T09:51:23.186Z,25
2018-01-25T09:51:53.852Z,25
2018-01-25T09:53:53.393Z,20
2018-01-25T09:54:53.999Z,20
2018-01-25T09:55:53.944Z,25
2018-01-25T09:57:08.392Z,25
2018-01-25T09:57:54.039Z,25
2018-01-25T09:58:54.024Z,25
2018-01-25T09:59:53.801Z,30
2018-01-25T10:00:53.371Z,30
2018-01-25T10:01:54.085Z,30
2018-01-25T10:03:08.260Z,30
2018-01-25T10:03:53.588Z,30
2018-01-25T10:05:08.273Z,30
2018-01-25T10:05:53.895Z,30
2018-01-25T10:07:08.836Z,30
2018-01-25T10:08:54.195Z,30
2018-01-25T10:09:53.988Z,30
2018-01-25T10:10:54.078Z,30
2018-01-25T10:11:54.010Z,30
2018-01-25T10:12:54.288Z,30
2018-01-25T10:13:54.063Z,30
2018-01-25T10:14:54.297Z,30
2018-01-25T10:15:54.341Z,30
2018-01-25T10:17:09.029Z,25
2018-01-25T10:17:54.449Z,25
2018-01-25T10:18:54.205Z,25
2018-01-25T10:19:54.185Z,25
2018-01-25T10:20:54.462Z,25
2018-01-25T10:22:09.148Z,25
2018-01-25T10:22:54.244Z,25
2018-01-25T10:24:08.907Z,30
2018-01-25T10:24:54.262Z,30
2018-01-25T10:25:54.285Z,30
2018-01-25T10:26:54.572Z,30
2018-01-25T10:27:54.679Z,30
2018-01-25T10:28:54.348Z,35
2018-01-25T10:29:54.351Z,35
2018-01-25T10:30:54.650Z,30
2018-01-25T10:31:54.159Z,30
2018-01-25T10:32:54.240Z,30
2018-01-25T10:34:54.462Z,30
2018-01-25T10:36:08.910Z,30
2018-01-25T10:36:54.777Z,35
2018-01-25T10:37:54.777Z,35
2018-01-25T10:38:54.797Z,40
2018-01-25T10:39:54.582Z,45
2018-01-25T10:40:54.592Z,45
2018-01-25T10:41:54.606Z,45
2018-01-25T10:42:54.858Z,50
2018-01-25T10:43:54.643Z,50
2018-01-25T10:44:54.695Z,50
2018-01-25T10:45:54.969Z,50
2018-01-25T10:46:54.805Z,45
2018-01-25T10:47:54.978Z,45
2018-01-25T10:48:54.738Z,45
2018-01-25T10:49:54.825Z,45
2018-01-25T10:50:54.557Z,40
2018-01-25T10:51:54.883Z,40
2018-01-25T10:52:55.069Z,40
2018-01-25T10:54:24.442Z,35
2018-01-25T10:54:54.846Z,35
2018-01-25T10:55:55.152Z,40
2018-01-25T10:56:55.163Z,40
2018-01-25T10:57:54.924Z,40
2018-01-25T10:59:09.858Z,40
2018-01-25T10:59:54.958Z,40
2018-01-25T11:00:54.986Z,40
2018-01-25T11:01:54.756Z,40
2018-01-25T11:02:55.041Z,40
2018-01-25T11:04:10.053Z,40
2018-01-25T11:04:55.321Z,40
2018-01-25T11:05:55.386Z,45
2018-01-25T11:06:55.368Z,45
2018-01-25T11:07:55.163Z,45
2018-01-25T11:08:55.509Z,45
2018-01-25T11:10:09.847Z,50
2018-01-25T11:10:54.955Z,50
2018-01-25T11:11:54.948Z,50
2018-01-25T11:13:10.152Z,55
2018-01-25T11:13:55.002Z,55
2018-01-25T11:14:55.283Z,55
2018-01-25T11:15:55.546Z,55
2018-01-25T11:16:55.337Z,55
2018-01-25T11:18:10.266Z,55
2018-01-25T11:19:24.712Z,50
2018-01-25T11:19:55.731Z,50
2018-01-25T11:20:55.650Z,50
2018-01-25T11:22:09.846Z,50
2018-01-25T11:22:55.681Z,50
2018-01-25T11:23:55.725Z,45
2018-01-25T11:26:10.149Z,40
2018-01-25T11:26:55.522Z,40
2018-01-25T11:28:10.460Z,35
2018-01-25T11:28:55.558Z,40
2018-01-25T11:29:55.829Z,40
2018-01-25T11:30:55.590Z,45
2018-01-25T11:31:55.867Z,45
2018-01-25T11:32:55.730Z,40
2018-01-25T11:33:56.004Z,40
2018-01-25T11:34:55.414Z,40
2018-01-25T11:35:55.930Z,40
2018-01-25T11:36:55.953Z,35
2018-01-25T11:38:10.770Z,40
2018-01-25T11:38:55.749Z,45
2018-01-25T11:39:55.537Z,45
2018-01-25T11:40:56.044Z,45
2018-01-25T11:42:10.496Z,40
2018-01-25T11:42:55.817Z,40
2018-01-25T11:43:55.864Z,40
2018-01-25T11:44:56.120Z,40
2018-01-25T11:45:55.874Z,40
2018-01-25T11:48:11.070Z,35
2018-01-25T11:49:10.887Z,30
2018-01-25T11:50:10.396Z,30
2018-01-25T11:50:56.252Z,30
2018-01-25T11:52:10.668Z,25
2018-01-25T11:52:56.164Z,25
2018-01-25T11:53:56.398Z,25
2018-01-25T11:54:56.322Z,20
2018-01-25T11:56:11.038Z,20
2018-01-25T11:57:10.795Z,20
2018-01-25T11:57:56.501Z,20
2018-01-25T11:58:56.648Z,20
2018-01-25T12:00:56.460Z,25
2018-01-25T12:01:56.241Z,25
2018-01-25T12:02:56.502Z,30
2018-01-25T12:03:56.528Z,30
2018-01-25T12:04:56.550Z,30
2018-01-25T12:05:56.292Z,30
2018-01-25T12:06:56.582Z,30
2018-01-25T12:07:56.086Z,30
2018-01-25T12:09:11.277Z,30
2018-01-25T12:09:56.400Z,30
2018-01-25T12:10:56.520Z,25
2018-01-25T12:11:56.433Z,25
2018-01-25T12:13:11.133Z,25
2018-01-25T12:14:11.139Z,25
2018-01-25T12:14:56.746Z,25
2018-01-25T12:16:10.928Z,20
2018-01-25T12:16:56.632Z,20
2018-01-25T12:17:56.796Z,20
2018-01-25T12:18:56.318Z,25
2018-01-25T12:19:56.353Z,25
2018-01-25T12:20:56.861Z,25
2018-01-25T12:21:57.072Z,25
2018-01-25T12:22:56.379Z,25
2018-01-25T12:23:56.664Z,25
2018-01-25T12:24:56.944Z,20
2018-01-25T12:25:56.736Z,20
2018-01-25T12:26:56.725Z,25
2018-01-25T12:28:11.680Z,25
2018-01-25T12:29:11.692Z,30
2018-01-25T12:29:57.039Z,30
2018-01-25T12:32:11.776Z,25
2018-01-25T12:32:56.610Z,25
2018-01-25T12:33:57.125Z,25
2018-01-25T12:34:56.882Z,25
2018-01-25T12:35:56.923Z,25
2018-01-25T12:36:57.194Z,20
2018-01-25T12:37:57.190Z,20
2018-01-25T12:39:56.849Z,20
2018-01-25T12:40:56.773Z,20
2018-01-25T12:41:57.468Z,25
2018-01-25T12:42:56.804Z,25
2018-01-25T12:43:57.352Z,30
2018-01-25T12:45:11.873Z,35
2018-01-25T12:45:57.158Z,35
2018-01-25T12:46:57.421Z,30
2018-01-25T12:47:57.478Z,30
2018-01-25T12:48:57.182Z,30
2018-01-25T12:49:57.452Z,25
2018-01-25T12:50:57.453Z,25
2018-01-25T12:51:57.329Z,25
2018-01-25T12:53:11.916Z,25
2018-01-25T12:53:57.529Z,25
2018-01-25T12:54:57.035Z,25
2018-01-25T12:55:57.548Z,30
2018-01-25T12:56:57.390Z,30
2018-01-25T12:57:57.577Z,30
2018-01-25T12:58:57.391Z,25
2018-01-25T13:01:12.343Z,25
2018-01-25T13:01:57.193Z,20
2018-01-25T13:02:57.443Z,20
2018-01-25T13:03:57.231Z,20
2018-01-25T13:04:57.499Z,20
2018-01-25T13:05:57.764Z,15
2018-01-25T13:06:57.584Z,15
2018-01-25T13:08:12.218Z,15
2018-01-25T13:08:57.330Z,15
2018-01-25T13:09:57.101Z,15
2018-01-25T13:11:12.563Z,15
2018-01-25T13:12:12.555Z,20
2018-01-25T13:12:57.917Z,20
2018-01-25T13:13:57.685Z,20
2018-01-25T13:15:12.694Z,20
2018-01-25T13:15:57.712Z,20
2018-01-25T13:17:27.361Z,15
2018-01-25T13:17:57.510Z,15
2018-01-25T13:19:12.514Z,15
2018-01-25T13:19:57.813Z,15
2018-01-25T13:20:57.825Z,15
2018-01-25T13:22:12.757Z,15
2018-01-25T13:23:58.136Z,20
2018-01-25T13:24:58.325Z,20
2018-01-25T13:25:57.675Z,20
2018-01-25T13:26:57.947Z,20
2018-01-25T13:27:57.717Z,20
2018-01-25T13:28:57.722Z,20
2018-01-25T13:29:58.247Z,20
2018-01-25T13:30:58.270Z,25
2018-01-25T13:32:12.723Z,25
2018-01-25T13:32:58.323Z,20
2018-01-25T13:33:58.345Z,20
2018-01-25T13:35:12.776Z,20
2018-01-25T13:35:58.123Z,20
2018-01-25T13:36:58.142Z,20
2018-01-25T13:37:58.152Z,20
2018-01-25T13:38:58.187Z,20
2018-01-25T13:39:57.957Z,20
2018-01-25T13:40:57.976Z,20
2018-01-25T13:42:12.668Z,20
2018-01-25T13:42:58.515Z,20
2018-01-25T13:43:58.549Z,20
2018-01-25T13:45:13.231Z,20
2018-01-25T13:45:58.313Z,20
2018-01-25T13:46:58.336Z,25
2018-01-25T13:47:58.362Z,25
2018-01-25T13:49:13.448Z,20
2018-01-25T13:49:58.650Z,20
2018-01-25T13:50:58.452Z,20
2018-01-25T13:51:58.665Z,20
2018-01-25T13:52:58.724Z,20
2018-01-25T13:53:58.733Z,20
2018-01-25T13:55:13.541Z,20
2018-01-25T13:55:58.523Z,20
2018-01-25T13:56:58.786Z,20
2018-01-25T13:57:58.839Z,20
2018-01-25T13:58:58.692Z,20
2018-01-25T13:59:58.608Z,20
2018-01-25T14:00:58.377Z,20
2018-01-25T14:01:58.629Z,20
2018-01-25T14:02:58.932Z,20
2018-01-25T14:04:13.658Z,15
2018-01-25T14:04:58.952Z,15
2018-01-25T14:05:58.475Z,15
2018-01-25T14:06:58.727Z,15
2018-01-25T14:07:59.016Z,15
2018-01-25T14:08:59.026Z,15
2018-01-25T14:10:13.482Z,15
2018-01-25T14:10:58.809Z,15
2018-01-25T14:11:59.169Z,10
2018-01-25T14:13:58.961Z,10
2018-01-25T14:15:13.697Z,10
2018-01-25T14:15:59.175Z,10
2018-01-25T14:16:58.967Z,10
2018-01-25T14:18:13.649Z,10
2018-01-25T14:19:13.718Z,10
2018-01-25T14:20:13.698Z,10
2018-01-25T14:20:59.304Z,10
2018-01-25T14:21:59.047Z,10
2018-01-25T14:22:59.351Z,5
2018-01-25T14:23:59.098Z,5
2018-01-25T14:25:14.038Z,5
2018-01-25T14:25:59.364Z,5
2018-01-25T14:26:59.417Z,5
2018-01-25T14:27:59.166Z,5
2018-01-25T14:28:59.193Z,5
2018-01-25T14:29:59.223Z,5
2018-01-25T14:30:59.507Z,5
2018-01-25T14:31:59.482Z,5
2018-01-25T14:32:59.275Z,5
2018-01-25T14:33:59.636Z,5
2018-01-25T14:34:59.313Z,5
2018-01-25T14:36:14.252Z,5
2018-01-25T14:36:59.460Z,5
2018-01-25T14:37:59.100Z,5
2018-01-25T14:39:14.333Z,5
2018-01-25T14:40:59.683Z,5
2018-01-25T14:41:59.795Z,5
2018-01-25T14:42:59.731Z,5
2018-01-25T14:43:59.762Z,5
2018-01-25T14:44:59.264Z,5
2018-01-25T14:45:59.800Z,5
2018-01-25T14:46:59.295Z,5
2018-01-25T14:47:59.567Z,5
2018-01-25T14:48:59.601Z,5
2018-01-25T14:49:59.601Z,5
2018-01-25T14:50:59.756Z,5
2018-01-25T14:52:59.697Z,5
2018-01-25T14:53:59.731Z,5
2018-01-25T14:54:59.984Z,5
2018-01-25T14:55:59.464Z,5
2018-01-25T14:56:59.768Z,5
2018-01-25T14:57:59.773Z,5
2018-01-25T14:59:14.456Z,5
2018-01-25T14:59:59.809Z,5
2018-01-25T15:01:00.086Z,5
2018-01-25T15:02:00.100Z,5
2018-01-25T15:03:00.096Z,5
2018-01-25T15:03:59.883Z,0
2018-01-25T15:05:00.168Z,0
2018-01-25T15:05:59.952Z,0
2018-01-25T15:07:14.608Z,0
2018-01-25T15:08:00.238Z,0
2018-01-25T15:09:00.237Z,0
2018-01-25T15:10:00.042Z,0
2018-01-25T15:12:00.037Z,0
2018-01-25T15:12:59.817Z,0
2018-01-25T15:14:00.077Z,0
2018-01-25T15:15:00.092Z,0
2018-01-25T15:16:00.111Z,0
2018-01-25T15:16:59.894Z,0
2018-01-25T15:18:15.083Z,0
2018-01-25T15:19:00.193Z,0
2018-01-25T15:20:00.440Z,0
2018-01-25T15:21:00.206Z,0
2018-01-25T15:22:00.572Z,0
2018-01-25T15:23:00.026Z,0
2018-01-25T15:24:00.527Z,0